Time;durP1;ratioP1;P1;durP2;ratioP2;P2;SDS_P1;SDS_P2;PMS_P1;PMS_P2;Temp;Humidity;BMP_temperature;BMP_pressure;BME280_temperature;BME280_humidity;BME280_pressure;Samples;Min_cycle;Max_cycle;Signal;HPM_P1;HPM_P2
2022/05/25 00:02:00;;;;;;;3.05;1.70;;;15.50;68.20;;;;;;2443226;52;21070;-73
2022/05/25 00:04:28;;;;;;;3.65;1.77;;;15.50;67.90;;;;;;2375167;56;21063;-74
2022/05/25 00:06:55;;;;;;;3.17;2.30;;;15.40;67.90;;;;;;2374969;56;21613;-74
2022/05/25 00:09:23;;;;;;;2.97;2.20;;;15.40;67.60;;;;;;2374662;56;21035;-73
2022/05/25 00:11:50;;;;;;;4.62;2.20;;;15.40;68.10;;;;;;2373701;56;21114;-74
2022/05/25 00:14:18;;;;;;;2.92;2.10;;;15.40;67.10;;;;;;2374135;56;21585;-74
2022/05/25 00:16:46;;;;;;;3.37;2.40;;;15.40;67.10;;;;;;2374529;56;21051;-74
2022/05/25 00:21:59;;;;;;;2.65;1.92;;;15.30;67.20;;;;;;2375055;52;21067;-74
2022/05/25 00:24:27;;;;;;;3.12;2.28;;;15.30;67.20;;;;;;2374815;56;21163;-74
2022/05/25 00:26:54;;;;;;;2.87;2.42;;;15.30;68.10;;;;;;2374017;56;21396;-74
2022/05/25 00:29:21;;;;;;;4.15;2.67;;;15.30;67.30;;;;;;2493907;52;21561;-73
2022/05/25 00:31:49;;;;;;;2.80;2.10;;;15.20;67.40;;;;;;2374988;56;21046;-73
2022/05/25 00:34:16;;;;;;;2.35;2.00;;;15.30;67.80;;;;;;2382530;52;21051;-74
2022/05/25 00:36:43;;;;;;;3.83;2.53;;;15.20;67.90;;;;;;2373708;56;21039;-73
2022/05/25 00:39:11;;;;;;;3.05;2.30;;;15.20;67.20;;;;;;2374775;56;21035;-74
2022/05/25 00:41:38;;;;;;;4.75;2.70;;;15.20;67.90;;;;;;2373997;56;21043;-73
2022/05/25 00:44:08;;;;;;;5.47;3.53;;;15.20;67.70;;;;;;2374278;56;21087;-73
2022/05/25 00:46:38;;;;;;;5.60;3.22;;;15.20;67.60;;;;;;2374387;56;21108;-73
2022/05/25 00:49:10;;;;;;;3.15;2.80;;;15.20;67.60;;;;;;2410962;52;21094;-73
2022/05/25 00:51:42;;;;;;;4.47;2.95;;;15.20;67.80;;;;;;2374795;56;21042;-73
2022/05/25 00:54:13;;;;;;;3.70;2.83;;;15.10;67.70;;;;;;2374438;56;21045;-73
2022/05/25 00:56:43;;;;;;;5.25;3.20;;;15.20;67.90;;;;;;2372943;56;21309;-73
2022/05/25 00:59:13;;;;;;;3.20;2.75;;;15.20;67.80;;;;;;2374160;56;21039;-74
2022/05/25 01:01:41;;;;;;;3.20;2.75;;;15.20;67.20;;;;;;2373455;56;21070;-73
2022/05/25 01:04:09;;;;;;;3.70;2.80;;;15.20;68.10;;;;;;2373800;56;21125;-73
2022/05/25 01:06:50;;;;;;;2.65;2.45;;;15.10;68.10;;;;;;2373705;56;21114;-73
2022/05/25 01:09:28;;;;;;;5.32;2.92;;;15.10;68.40;;;;;;2373517;56;21050;-74
2022/05/25 01:12:06;;;;;;;3.00;2.72;;;15.10;68.40;;;;;;2374131;56;21121;-73
2022/05/25 01:14:49;;;;;;;6.40;3.58;;;15.20;68.30;;;;;;2373355;56;21059;-73
2022/05/25 01:17:27;;;;;;;5.47;3.42;;;15.10;68.10;;;;;;2448173;52;21042;-73
2022/05/25 01:23:22;;;;;;;3.60;3.20;;;15.10;67.90;;;;;;2355066;57;22545;-73
2022/05/25 01:29:18;;;;;;;4.53;3.62;;;15.10;67.90;;;;;;2335267;54;22582;-73
2022/05/25 01:31:51;;;;;;;5.30;3.85;;;15.10;67.70;;;;;;2346971;57;21151;-74
2022/05/25 01:34:29;;;;;;;5.82;4.05;;;15.10;67.80;;;;;;2347238;57;21089;-75
2022/05/25 01:37:04;;;;;;;10.95;4.95;;;15.00;67.50;;;;;;2347586;57;21045;-75
2022/05/25 01:39:35;;;;;;;6.90;4.12;;;15.00;67.50;;;;;;2347126;57;21423;-75
2022/05/25 01:42:10;;;;;;;6.05;3.97;;;15.00;67.50;;;;;;2343967;57;21069;-74
2022/05/25 01:44:40;;;;;;;4.25;3.60;;;15.00;67.50;;;;;;2347135;57;21113;-74
2022/05/25 01:47:10;;;;;;;4.97;3.37;;;15.00;67.70;;;;;;2346888;57;21021;-74
2022/05/25 01:49:44;;;;;;;5.70;3.95;;;14.90;68.00;;;;;;2347962;57;21085;-74
2022/05/25 01:52:15;;;;;;;6.57;3.85;;;14.90;68.00;;;;;;2347229;57;21030;-74
2022/05/25 01:54:50;;;;;;;4.55;3.60;;;14.80;67.90;;;;;;2347336;57;21040;-74
2022/05/25 01:57:21;;;;;;;5.45;4.12;;;14.90;67.90;;;;;;2347028;57;21064;-75
2022/05/25 01:59:48;;;;;;;7.97;4.75;;;14.90;67.70;;;;;;2347241;57;21116;-74
2022/05/25 02:05:06;;;;;;;5.53;3.80;;;14.80;67.50;;;;;;2347385;53;21060;-74
2022/05/25 02:07:48;;;;;;;7.37;4.00;;;14.80;67.50;;;;;;2351299;53;21053;-74
2022/05/25 02:10:25;;;;;;;5.18;4.00;;;14.80;67.70;;;;;;2346923;57;21128;-74
2022/05/25 02:13:07;;;;;;;4.55;3.65;;;14.80;67.80;;;;;;2346562;57;21046;-75
2022/05/25 02:15:43;;;;;;;4.95;3.75;;;14.80;68.10;;;;;;2347420;57;21033;-74
2022/05/25 02:18:17;;;;;;;4.15;3.70;;;14.70;68.10;;;;;;2346524;57;21204;-74
2022/05/25 02:20:52;;;;;;;4.62;3.97;;;14.70;68.10;;;;;;2347488;57;21046;-74
2022/05/25 02:23:26;;;;;;;3.55;3.25;;;14.70;68.10;;;;;;2346836;57;21049;-74
2022/05/25 02:26:02;;;;;;;5.00;4.03;;;14.70;68.00;;;;;;2346979;57;21089;-74
2022/05/25 02:28:34;;;;;;;4.80;4.00;;;14.60;67.90;;;;;;2357770;53;21049;-74
2022/05/25 02:31:04;;;;;;;6.03;4.03;;;14.60;68.00;;;;;;2347493;57;21042;-74
2022/05/25 02:33:37;;;;;;;7.62;4.65;;;14.60;68.10;;;;;;2346822;57;21296;-74
2022/05/25 02:36:08;;;;;;;5.90;5.05;;;14.60;68.20;;;;;;2346623;57;21093;-74
2022/05/25 02:38:37;;;;;;;6.50;4.68;;;14.60;68.10;;;;;;2346576;57;21061;-74
2022/05/25 02:41:07;;;;;;;7.80;4.80;;;14.60;68.10;;;;;;2397323;53;21033;-74
2022/05/25 02:43:36;;;;;;;6.12;5.12;;;14.50;68.00;;;;;;2345349;57;21070;-74
2022/05/25 02:46:06;;;;;;;8.05;5.10;;;14.50;68.20;;;;;;2345381;57;21114;-74
2022/05/25 02:48:33;;;;;;;7.70;4.78;;;14.50;68.30;;;;;;2346713;57;21038;-74
2022/05/25 02:51:01;;;;;;;5.87;4.87;;;14.50;68.50;;;;;;2345917;57;21527;-74
2022/05/25 02:53:28;;;;;;;5.45;4.62;;;14.40;68.70;;;;;;2346866;57;21212;-74
2022/05/25 02:55:55;;;;;;;6.20;5.50;;;14.40;68.80;;;;;;2345737;57;21133;-74
2022/05/25 02:58:23;;;;;;;6.47;4.87;;;14.40;68.90;;;;;;2346517;57;21057;-73
2022/05/25 03:00:50;;;;;;;5.30;4.75;;;14.40;68.80;;;;;;2346309;57;21517;-74
2022/05/25 03:03:17;;;;;;;6.65;5.10;;;14.40;69.40;;;;;;2344447;57;21632;-75
2022/05/25 03:05:44;;;;;;;8.48;5.32;;;14.40;69.60;;;;;;2345857;57;21030;-75
2022/05/25 03:08:12;;;;;;;5.40;4.68;;;14.30;69.70;;;;;;2345730;57;21049;-75
2022/05/25 03:10:40;;;;;;;6.78;4.70;;;14.30;69.80;;;;;;2346794;57;21045;-74
2022/05/25 03:13:08;;;;;;;6.00;4.95;;;14.30;70.20;;;;;;2345891;57;21030;-75
2022/05/25 03:15:36;;;;;;;5.93;5.32;;;14.30;70.40;;;;;;2346026;57;21042;-74
2022/05/25 03:18:03;;;;;;;5.80;5.03;;;14.30;70.40;;;;;;2345465;57;21030;-74
2022/05/25 03:20:31;;;;;;;6.68;4.45;;;14.30;70.80;;;;;;2345694;57;21038;-74
2022/05/25 03:22:58;;;;;;;5.32;4.25;;;14.30;70.90;;;;;;2346158;57;21560;-75
2022/05/25 03:25:26;;;;;;;6.28;4.68;;;14.20;71.00;;;;;;2345456;57;22104;-74
2022/05/25 03:27:53;;;;;;;6.15;4.75;;;14.30;71.10;;;;;;2345484;57;21548;-75
2022/05/25 03:30:21;;;;;;;7.95;5.10;;;14.20;71.20;;;;;;2346072;57;21568;-74
2022/05/25 03:32:48;;;;;;;6.00;5.37;;;14.30;71.10;;;;;;2346377;57;21112;-75
2022/05/25 03:35:16;;;;;;;9.32;5.10;;;14.20;70.90;;;;;;2345091;57;21173;-75
2022/05/25 03:37:44;;;;;;;7.45;5.70;;;14.20;71.00;;;;;;2346395;57;21050;-74
2022/05/25 03:40:14;;;;;;;6.87;5.00;;;14.20;70.80;;;;;;2345861;57;21101;-74
2022/05/25 03:42:43;;;;;;;6.53;5.05;;;14.20;70.80;;;;;;2494665;53;21054;-73
2022/05/25 03:45:13;;;;;;;6.20;5.18;;;14.20;70.70;;;;;;2346331;57;21042;-73
2022/05/25 03:47:40;;;;;;;5.50;4.95;;;14.20;70.60;;;;;;2345935;57;21053;-74
2022/05/25 03:50:10;;;;;;;5.43;4.47;;;14.20;70.70;;;;;;2345894;57;21057;-73
2022/05/25 03:52:38;;;;;;;8.57;5.45;;;14.20;70.90;;;;;;2449782;52;21231;-74
2022/05/25 03:55:07;;;;;;;6.03;5.20;;;14.20;70.80;;;;;;2358667;57;21127;-77
2022/05/25 03:57:35;;;;;;;6.90;5.75;;;14.20;70.80;;;;;;2359791;57;21033;-76
2022/05/25 04:00:02;;;;;;;7.18;5.97;;;14.10;70.60;;;;;;2363117;56;21025;-77
2022/05/25 04:02:29;;;;;;;7.87;6.07;;;14.10;70.50;;;;;;2361128;57;21069;-76
2022/05/25 04:05:07;;;;;;;6.32;5.62;;;14.10;70.30;;;;;;2361065;56;21041;-76
2022/05/25 04:07:36;;;;;;;7.70;5.55;;;14.10;70.10;;;;;;2360745;57;21060;-76
2022/05/25 04:10:05;;;;;;;6.35;5.22;;;14.10;69.90;;;;;;2361377;57;21104;-76
2022/05/25 04:12:34;;;;;;;9.90;5.97;;;14.10;70.10;;;;;;2360836;56;21370;-76
2022/05/25 04:15:01;;;;;;;6.43;5.45;;;14.10;70.10;;;;;;2360651;57;21021;-77
2022/05/25 04:17:28;;;;;;;6.65;5.72;;;14.10;70.10;;;;;;2360455;57;21029;-76
2022/05/25 04:19:56;;;;;;;7.97;6.15;;;14.10;70.10;;;;;;2361325;56;21121;-75
2022/05/25 04:22:24;;;;;;;7.80;5.93;;;14.10;70.30;;;;;;2361839;56;21675;-76
2022/05/25 04:24:51;;;;;;;8.48;5.95;;;14.10;70.30;;;;;;2362193;57;21153;-76
2022/05/25 04:27:19;;;;;;;7.30;5.70;;;14.10;70.60;;;;;;2362650;57;21100;-76
2022/05/25 04:29:46;;;;;;;7.78;5.50;;;14.10;71.00;;;;;;2362739;57;21093;-76
2022/05/25 04:32:13;;;;;;;6.85;5.75;;;14.10;71.00;;;;;;2614027;53;21153;-76
2022/05/25 04:34:41;;;;;;;7.22;5.70;;;14.10;71.20;;;;;;2362875;56;21034;-75
2022/05/25 04:39:53;;;;;;;10.80;5.70;;;14.10;70.90;;;;;;2361381;57;21013;-76
2022/05/25 04:42:21;;;;;;;8.57;5.62;;;14.10;70.70;;;;;;2361907;57;21061;-75
2022/05/25 04:44:48;;;;;;;8.02;5.75;;;14.10;71.00;;;;;;2362644;57;21037;-76
2022/05/25 04:47:15;;;;;;;8.82;5.90;;;14.00;71.20;;;;;;2361988;57;21151;-76
2022/05/25 04:49:44;;;;;;;8.68;7.03;;;14.10;71.00;;;;;;2361864;57;21037;-75
2022/05/25 04:52:11;;;;;;;6.75;6.05;;;14.10;71.20;;;;;;2364235;56;21101;-76
2022/05/25 04:54:38;;;;;;;8.23;5.90;;;14.10;71.20;;;;;;2395323;56;21047;-76
2022/05/25 04:57:21;;;;;;;8.50;6.18;;;14.10;71.40;;;;;;2395859;56;21070;-76
2022/05/25 04:59:49;;;;;;;7.72;6.80;;;14.10;71.40;;;;;;2395776;56;21042;-75
2022/05/25 05:02:16;;;;;;;10.98;7.47;;;14.10;71.40;;;;;;2396345;56;21379;-77
2022/05/25 05:04:44;;;;;;;7.40;6.00;;;14.10;71.70;;;;;;2396093;56;21073;-77
2022/05/25 05:07:12;;;;;;;7.62;6.60;;;14.20;71.80;;;;;;2394776;56;21037;-77
2022/05/25 05:09:42;;;;;;;9.02;7.10;;;14.20;71.90;;;;;;2396020;56;21292;-77
2022/05/25 05:12:10;;;;;;;7.45;6.05;;;14.20;71.80;;;;;;2396233;56;21038;-77
2022/05/25 05:14:38;;;;;;;10.38;6.90;;;14.20;72.00;;;;;;2397187;56;21094;-77
2022/05/25 05:17:07;;;;;;;8.00;6.45;;;14.20;71.80;;;;;;2396324;56;21039;-76
2022/05/25 05:19:34;;;;;;;8.68;5.90;;;14.20;71.50;;;;;;2397024;56;21038;-77
2022/05/25 05:22:02;;;;;;;11.43;6.68;;;14.30;71.30;;;;;;2396772;56;21118;-76
2022/05/25 05:24:32;;;;;;;9.95;7.20;;;14.30;71.50;;;;;;2397378;56;21543;-76
2022/05/25 05:26:59;;;;;;;9.43;6.65;;;14.30;72.20;;;;;;2396720;56;21117;-76
2022/05/25 05:29:30;;;;;;;12.25;6.90;;;14.30;72.20;;;;;;2655568;52;21568;-76
2022/05/25 05:31:58;;;;;;;7.10;6.37;;;14.40;72.10;;;;;;2397030;56;21023;-76
2022/05/25 05:34:27;;;;;;;8.98;6.43;;;14.40;71.80;;;;;;2396824;56;21102;-77
2022/05/25 05:36:58;;;;;;;9.32;6.22;;;14.40;71.30;;;;;;2396512;56;21100;-77
2022/05/25 05:39:28;;;;;;;7.30;6.20;;;14.40;71.80;;;;;;2397083;56;21030;-76
2022/05/25 05:41:59;;;;;;;9.00;6.47;;;14.40;71.60;;;;;;2397227;56;21014;-76
2022/05/25 05:44:30;;;;;;;8.93;6.43;;;14.40;71.50;;;;;;2397125;56;21081;-76
2022/05/25 05:47:00;;;;;;;12.52;7.57;;;14.50;70.60;;;;;;2396688;56;21034;-76
2022/05/25 05:49:27;;;;;;;9.32;7.35;;;14.50;71.10;;;;;;2397046;56;21034;-76
2022/05/25 05:51:55;;;;;;;7.78;6.05;;;14.50;71.00;;;;;;2396989;56;21102;-76
2022/05/25 05:54:23;;;;;;;7.43;5.87;;;14.60;70.70;;;;;;2396799;56;21493;-76
2022/05/25 05:56:50;;;;;;;8.88;6.20;;;14.60;70.40;;;;;;2396826;56;21117;-76
2022/05/25 05:59:18;;;;;;;10.95;8.15;;;14.60;71.30;;;;;;2397004;56;21545;-77
2022/05/25 06:01:45;;;;;;;9.32;7.22;;;14.60;71.40;;;;;;2397062;56;21133;-76
2022/05/25 06:04:12;;;;;;;11.48;7.32;;;14.60;72.10;;;;;;2396932;56;21042;-76
2022/05/25 06:06:40;;;;;;;11.57;8.27;;;14.70;72.00;;;;;;2396748;56;21130;-76
2022/05/25 06:09:07;;;;;;;11.43;8.82;;;14.70;72.10;;;;;;2396957;56;21528;-76
2022/05/25 06:11:40;;;;;;;9.82;7.05;;;14.70;72.70;;;;;;2655499;52;21580;-76
2022/05/25 06:14:07;;;;;;;10.30;6.97;;;14.70;72.30;;;;;;2397166;56;21045;-77
2022/05/25 06:19:26;;;;;;;12.07;6.47;;;14.90;71.60;;;;;;2397084;56;21010;-76
2022/05/25 06:21:57;;;;;;;8.90;6.70;;;14.80;72.10;;;;;;2397364;56;21113;-76
2022/05/25 06:24:26;;;;;;;7.80;6.10;;;14.80;72.30;;;;;;2396970;56;21593;-77
2022/05/25 06:26:53;;;;;;;9.02;6.45;;;14.90;72.50;;;;;;2396724;56;21109;-76
2022/05/25 06:29:21;;;;;;;5.37;4.40;;;14.90;72.30;;;;;;2397157;56;21030;-76
2022/05/25 06:31:49;;;;;;;9.48;5.20;;;14.90;72.20;;;;;;2397477;56;21170;-76
2022/05/25 06:34:17;;;;;;;6.70;4.87;;;14.90;72.10;;;;;;2397037;56;21034;-77
2022/05/25 06:36:46;;;;;;;7.03;4.10;;;14.90;72.40;;;;;;2396725;56;21026;-76
2022/05/25 06:39:21;;;;;;;5.07;3.60;;;14.90;71.90;;;;;;2397102;56;21101;-77
2022/05/25 06:41:48;;;;;;;6.22;3.83;;;15.00;71.40;;;;;;2397253;56;21176;-77
2022/05/25 06:44:17;;;;;;;3.60;3.10;;;15.00;70.90;;;;;;2396804;56;21085;-77
2022/05/25 06:46:44;;;;;;;4.22;2.85;;;15.10;70.80;;;;;;2396849;56;21576;-76
2022/05/25 06:49:11;;;;;;;3.72;3.10;;;15.10;69.20;;;;;;2397027;56;21596;-77
2022/05/25 06:51:39;;;;;;;5.60;3.35;;;15.10;69.60;;;;;;2397052;56;21121;-76
2022/05/25 06:54:07;;;;;;;5.05;3.47;;;15.10;69.60;;;;;;2388727;56;21077;-77
2022/05/25 06:56:34;;;;;;;5.03;2.87;;;15.20;68.90;;;;;;2380931;56;21114;-76
2022/05/25 06:59:05;;;;;;;5.00;3.33;;;15.20;68.70;;;;;;2381384;56;21034;-76
2022/05/25 07:01:32;;;;;;;5.60;2.83;;;15.30;68.60;;;;;;2381470;56;21039;-76
2022/05/25 07:03:59;;;;;;;3.95;2.80;;;15.30;67.30;;;;;;2381178;56;21332;-77
2022/05/25 07:06:27;;;;;;;6.40;2.87;;;15.30;66.50;;;;;;2381095;56;21098;-76
2022/05/25 07:08:55;;;;;;;3.83;2.78;;;15.40;67.10;;;;;;2381051;56;21054;-76
2022/05/25 07:11:23;;;;;;;4.60;3.10;;;15.40;66.40;;;;;;2381433;56;21035;-76
2022/05/25 07:13:51;;;;;;;2.65;2.40;;;15.40;66.10;;;;;;2381466;56;21043;-76
2022/05/25 07:16:20;;;;;;;3.47;2.30;;;15.50;66.40;;;;;;2380936;56;21038;-75
2022/05/25 07:18:49;;;;;;;3.60;2.42;;;15.50;65.60;;;;;;2381108;56;21047;-75
2022/05/25 07:21:19;;;;;;;3.05;2.30;;;15.60;65.10;;;;;;2381221;56;21031;-75
2022/05/25 07:23:49;;;;;;;3.03;2.72;;;15.60;65.20;;;;;;2381369;56;21082;-75
2022/05/25 07:26:17;;;;;;;5.53;3.12;;;15.70;65.00;;;;;;2381014;56;21090;-76
2022/05/25 07:28:46;;;;;;;5.35;3.20;;;15.70;65.00;;;;;;2381266;56;21035;-75
2022/05/25 07:31:20;;;;;;;4.32;2.90;;;15.80;65.70;;;;;;2381340;56;21113;-75
2022/05/25 07:33:55;;;;;;;4.95;3.15;;;15.90;66.10;;;;;;2381436;56;21027;-76
2022/05/25 07:36:25;;;;;;;4.20;2.60;;;15.90;65.10;;;;;;2380915;56;21043;-76
2022/05/25 07:38:55;;;;;;;6.18;3.37;;;16.00;65.00;;;;;;2381387;56;21098;-75
2022/05/25 07:41:23;;;;;;;5.03;3.80;;;16.10;64.50;;;;;;2636099;52;21035;-76
2022/05/25 07:43:57;;;;;;;4.80;2.80;;;16.10;64.00;;;;;;2381115;56;21050;-76
2022/05/25 07:46:26;;;;;;;3.45;2.70;;;16.20;63.80;;;;;;2380884;56;21429;-75
2022/05/25 07:48:53;;;;;;;5.70;2.70;;;16.20;62.70;;;;;;2381205;56;21122;-76
2022/05/25 07:51:21;;;;;;;2.55;1.85;;;16.30;62.60;;;;;;2381276;56;21086;-76
2022/05/25 07:53:56;;;;;;;4.35;2.45;;;16.30;62.90;;;;;;2381202;56;21023;-76
2022/05/25 07:56:24;;;;;;;5.55;3.35;;;16.40;62.90;;;;;;2380868;56;21146;-76
2022/05/25 07:58:54;;;;;;;2.58;2.22;;;16.40;62.50;;;;;;2381190;56;21118;-76
2022/05/25 08:05:43;;;;;;;2.45;2.03;;;16.50;62.40;;;;;;2381393;56;21110;-76
2022/05/25 08:08:21;;;;;;;2.95;2.20;;;16.50;61.40;;;;;;2381320;56;21055;-76
2022/05/25 08:10:51;;;;;;;2.28;1.70;;;16.60;59.50;;;;;;2381062;56;21114;-76
2022/05/25 08:13:19;;;;;;;2.37;1.65;;;16.60;59.90;;;;;;2636057;52;21034;-76
2022/05/25 08:15:46;;;;;;;2.00;1.60;;;16.70;59.70;;;;;;2380931;56;21039;-76
2022/05/25 08:18:16;;;;;;;7.10;2.28;;;16.70;58.90;;;;;;2381154;56;21103;-76
2022/05/25 08:20:43;;;;;;;1.95;1.60;;;16.70;58.60;;;;;;2381366;56;21082;-76
2022/05/25 08:23:14;;;;;;;4.20;1.65;;;16.70;58.60;;;;;;2381165;56;21038;-76
2022/05/25 08:25:42;;;;;;;4.45;1.90;;;16.80;58.40;;;;;;2380631;56;21105;-76
2022/05/25 08:28:10;;;;;;;2.58;2.00;;;16.90;57.90;;;;;;2381162;56;21129;-76
2022/05/25 08:30:41;;;;;;;3.33;1.80;;;16.90;57.70;;;;;;2381456;56;21182;-76
2022/05/25 08:33:09;;;;;;;2.08;1.87;;;16.90;57.70;;;;;;2381441;56;21034;-76
2022/05/25 08:35:37;;;;;;;3.83;2.08;;;17.00;57.90;;;;;;2380909;56;21109;-76
2022/05/25 08:38:05;;;;;;;7.53;1.85;;;17.00;57.80;;;;;;2381153;56;21121;-76
2022/05/25 08:40:34;;;;;;;2.58;2.03;;;17.10;57.70;;;;;;2381315;56;21023;-76
2022/05/25 08:43:07;;;;;;;2.00;1.65;;;17.10;57.60;;;;;;2380968;56;21043;-76
2022/05/25 08:45:37;;;;;;;2.75;1.70;;;17.20;57.40;;;;;;2381159;56;21116;-76
2022/05/25 08:48:08;;;;;;;3.33;1.67;;;17.20;57.30;;;;;;2380833;56;21215;-76
2022/05/25 08:50:36;;;;;;;1.73;1.55;;;17.20;56.60;;;;;;2381244;56;21042;-76
2022/05/25 08:53:06;;;;;;;2.15;1.80;;;17.30;56.60;;;;;;2381213;56;21099;-76
2022/05/25 08:55:48;;;;;;;1.85;1.40;;;17.30;57.00;;;;;;2380830;56;21758;-76
2022/05/25 08:58:17;;;;;;;2.55;1.62;;;17.40;56.60;;;;;;2380998;56;21043;-75
2022/05/25 09:00:47;;;;;;;2.47;1.37;;;17.40;56.30;;;;;;2381116;56;21039;-75
2022/05/25 09:03:25;;;;;;;2.75;1.60;;;17.50;56.50;;;;;;2381089;56;21185;-75
2022/05/25 09:05:59;;;;;;;1.62;1.52;;;17.50;56.80;;;;;;2381053;56;21082;-76
2022/05/25 09:08:35;;;;;;;3.58;1.37;;;17.60;56.70;;;;;;2635963;52;21047;-76
2022/05/25 09:11:08;;;;;;;2.53;1.45;;;17.60;56.30;;;;;;2381193;56;21125;-76
2022/05/25 09:13:40;;;;;;;4.10;1.83;;;17.70;55.60;;;;;;2381394;56;21595;-76
2022/05/25 09:16:17;;;;;;;2.33;1.67;;;17.70;55.40;;;;;;2635736;52;21074;-76
2022/05/25 09:18:53;;;;;;;4.95;1.75;;;17.80;55.20;;;;;;2380844;56;21046;-76
2022/05/25 09:21:25;;;;;;;2.78;1.87;;;17.80;54.80;;;;;;2636182;52;21043;-76
2022/05/25 09:23:56;;;;;;;3.30;1.40;;;18.00;55.00;;;;;;2381057;56;21078;-76
2022/05/25 09:26:23;;;;;;;3.65;1.40;;;18.00;55.30;;;;;;2380892;56;21039;-76
2022/05/25 09:28:56;;;;;;;2.60;1.50;;;18.00;55.00;;;;;;2380948;56;21038;-76
2022/05/25 09:31:32;;;;;;;2.10;1.42;;;18.00;54.00;;;;;;2381573;56;21050;-76
2022/05/25 09:34:03;;;;;;;1.40;1.30;;;18.10;54.40;;;;;;2381012;56;21043;-76
2022/05/25 09:36:38;;;;;;;1.92;1.30;;;18.10;53.30;;;;;;2381029;56;21101;-76
2022/05/25 09:39:15;;;;;;;1.92;1.40;;;18.20;52.90;;;;;;2381217;56;21040;-76
2022/05/25 09:41:45;;;;;;;1.58;1.30;;;18.30;53.50;;;;;;2381315;56;21069;-76
2022/05/25 09:44:18;;;;;;;2.17;1.27;;;18.30;53.60;;;;;;2381084;56;21051;-76
2022/05/25 09:46:52;;;;;;;1.97;1.30;;;18.40;53.20;;;;;;2381265;56;21078;-76
2022/05/25 09:49:38;;;;;;;1.67;1.23;;;18.40;52.80;;;;;;2381238;56;21045;-75
2022/05/25 09:54:41;;;;;;;2.72;1.50;;;18.50;52.80;;;;;;2316997;58;21052;-76
2022/05/25 09:57:17;;;;;;;1.85;1.00;;;18.50;52.10;;;;;;2319513;57;21110;-77
2022/05/25 09:59:52;;;;;;;3.53;1.10;;;18.50;52.50;;;;;;2344133;57;21022;-77
2022/05/25 10:02:27;;;;;;;2.58;1.12;;;18.60;52.40;;;;;;2344348;57;21053;-77
2022/05/25 10:04:56;;;;;;;2.45;1.50;;;18.60;52.30;;;;;;2343685;57;21062;-77
2022/05/25 10:07:30;;;;;;;1.27;1.10;;;18.70;51.50;;;;;;2343899;57;21053;-76
2022/05/25 10:10:01;;;;;;;3.03;1.30;;;18.70;51.00;;;;;;2343832;57;21049;-76
2022/05/25 10:12:32;;;;;;;1.85;1.67;;;18.70;51.40;;;;;;2344214;57;21125;-77
2022/05/25 10:15:02;;;;;;;1.95;1.50;;;18.70;51.00;;;;;;2343878;57;21120;-76
2022/05/25 10:17:36;;;;;;;1.95;1.42;;;18.70;51.20;;;;;;2343798;57;21054;-76
2022/05/25 10:20:19;;;;;;;4.32;1.75;;;18.70;51.70;;;;;;2344211;57;21105;-74
2022/05/25 10:22:50;;;;;;;4.05;1.67;;;18.70;51.30;;;;;;2477511;53;21116;-75
2022/05/25 10:25:28;;;;;;;3.22;1.62;;;18.70;51.40;;;;;;2515457;53;21129;-74
2022/05/25 10:27:56;;;;;;;1.90;1.67;;;18.80;51.80;;;;;;2344201;57;21041;-74
2022/05/25 10:39:17;;;;;;;3.10;1.42;;;19.00;49.90;;;;;;2366611;54;21045;-74
2022/05/25 10:41:45;;;;;;;1.30;1.20;;;19.10;49.70;;;;;;2343913;57;21105;-74
2022/05/25 10:44:20;;;;;;;2.60;1.35;;;19.20;50.60;;;;;;2343743;57;21058;-74
2022/05/25 10:46:53;;;;;;;2.10;1.40;;;19.30;50.60;;;;;;2377001;53;21042;-76
2022/05/25 10:49:28;;;;;;;1.40;1.30;;;19.30;50.10;;;;;;2344022;57;21069;-76
2022/05/25 10:52:00;;;;;;;1.55;1.30;;;19.40;50.30;;;;;;2344116;57;21061;-76
2022/05/25 10:54:51;;;;;;;1.50;1.27;;;19.40;50.50;;;;;;2473750;53;21200;-77
2022/05/25 10:57:40;;;;;;;3.95;1.67;;;19.40;50.30;;;;;;2343889;57;21105;-74
2022/05/25 11:00:12;;;;;;;2.65;1.27;;;19.50;50.60;;;;;;2343678;57;21092;-75
2022/05/25 11:03:06;;;;;;;5.10;1.27;;;19.50;49.40;;;;;;2344593;57;21119;-74
2022/05/25 11:05:37;;;;;;;;;;;19.60;49.30;;;;;;2375722;53;21097;-74
2022/05/25 11:08:16;;;;;;;2.33;1.30;;;19.60;49.20;;;;;;2344024;57;20150;-75
2022/05/25 11:10:57;;;;;;;2.67;1.15;;;19.70;49.30;;;;;;2343844;57;21069;-74
2022/05/25 11:13:43;;;;;;;1.98;1.17;;;19.70;49.00;;;;;;2344142;57;21037;-74
2022/05/25 11:16:27;;;;;;;1.73;1.20;;;19.80;48.70;;;;;;2343430;57;21121;-74
2022/05/25 11:19:15;;;;;;;1.30;1.20;;;19.90;48.50;;;;;;2344133;57;21105;-75
2022/05/25 11:21:52;;;;;;;0.82;0.82;;;20.00;49.40;;;;;;2344132;57;21057;-74
2022/05/25 11:24:35;;;;;;;3.08;1.27;;;20.10;49.30;;;;;;2343970;57;21054;-75
2022/05/25 11:27:18;;;;;;;2.47;1.00;;;20.10;48.60;;;;;;2343775;57;21512;-74
2022/05/25 11:30:04;;;;;;;1.37;1.02;;;20.10;47.60;;;;;;2344106;57;21120;-74
2022/05/25 11:32:52;;;;;;;1.62;1.20;;;20.20;48.30;;;;;;2357926;53;21112;-75
2022/05/25 11:35:39;;;;;;;1.33;1.12;;;20.20;48.00;;;;;;2343165;57;21097;-75
2022/05/25 11:38:19;;;;;;;2.28;1.10;;;20.40;48.00;;;;;;2354111;53;21117;-75
2022/05/25 11:41:06;;;;;;;3.35;0.98;;;20.60;47.60;;;;;;2343990;57;21117;-74
2022/05/25 11:43:59;;;;;;;1.35;0.90;;;20.80;47.20;;;;;;2344033;57;21119;-75
2022/05/25 11:46:39;;;;;;;6.47;0.85;;;20.90;44.80;;;;;;2343525;57;21041;-74
2022/05/25 11:49:43;;;;;;;3.03;0.80;;;21.00;45.00;;;;;;2373437;53;21041;-75
2022/05/25 11:52:19;;;;;;;;;;;21.10;44.70;;;;;;2347184;57;21694;-75
2022/05/25 11:54:57;;;;;;;1.60;0.90;;;21.00;46.20;;;;;;2343930;57;20062;-74
2022/05/25 11:57:32;;;;;;;1.00;0.90;;;21.10;45.00;;;;;;2376150;53;21053;-76
2022/05/25 12:00:36;;;;;;;2.15;1.10;;;21.30;44.80;;;;;;2389204;53;21061;-76
2022/05/25 12:03:44;;;;;;;2.47;1.05;;;21.40;44.20;;;;;;2341426;57;21081;-74
2022/05/25 12:06:25;;;;;;;2.60;0.95;;;21.60;44.30;;;;;;2340056;57;21081;-75
2022/05/25 12:09:09;;;;;;;1.15;0.70;;;21.70;44.30;;;;;;2343884;57;21068;-75
2022/05/25 12:11:44;;;;;;;1.17;0.90;;;21.60;43.20;;;;;;2343759;57;21051;-75
2022/05/25 12:14:56;;;;;;;2.78;1.33;;;21.60;43.70;;;;;;2344087;57;21113;-75
2022/05/25 12:17:31;;;;;;;2.58;0.90;;;21.60;43.00;;;;;;2306162;57;21056;-74
2022/05/25 12:20:01;;;;;;;1.37;0.73;;;21.60;43.80;;;;;;2350696;53;21120;-75
2022/05/25 12:22:33;;;;;;;2.47;1.10;;;21.60;44.70;;;;;;2343724;57;21097;-74
2022/05/25 12:25:06;;;;;;;1.75;0.60;;;21.60;42.90;;;;;;2343953;57;21176;-75
2022/05/25 12:27:40;;;;;;;2.20;0.88;;;21.60;42.70;;;;;;2343743;57;21129;-74
2022/05/25 12:30:14;;;;;;;1.58;0.60;;;21.60;42.80;;;;;;2369180;53;21595;-75
2022/05/25 12:32:43;;;;;;;2.97;0.80;;;21.70;42.40;;;;;;2344128;57;21041;-74
2022/05/25 12:35:13;;;;;;;2.08;0.82;;;21.70;43.10;;;;;;2343842;57;21045;-75
2022/05/25 12:37:43;;;;;;;0.62;0.55;;;21.70;42.10;;;;;;2347034;53;21053;-75
2022/05/25 12:40:13;;;;;;;3.15;0.77;;;21.70;43.50;;;;;;2344062;57;21108;-75
2022/05/25 12:42:43;;;;;;;2.10;0.75;;;21.70;44.00;;;;;;2396862;53;21041;-75
2022/05/25 12:51:36;;;;;;;1.15;0.80;;;21.70;44.10;;;;;;2356271;57;22584;-76
2022/05/25 12:54:06;;;;;;;1.05;0.70;;;21.50;44.10;;;;;;2405956;53;21053;-75
2022/05/25 12:56:36;;;;;;;0.70;0.70;;;21.40;43.70;;;;;;2347420;57;21061;-74
2022/05/25 12:59:09;;;;;;;1.45;1.00;;;21.30;44.50;;;;;;2417744;52;21078;-74
2022/05/25 13:01:39;;;;;;;3.45;1.10;;;21.20;43.20;;;;;;2375504;56;21043;-74
2022/05/25 13:04:18;;;;;;;0.95;0.60;;;21.20;43.90;;;;;;2375548;56;21110;-74
2022/05/25 13:07:20;;;;;;;1.73;0.85;;;21.30;44.90;;;;;;2375028;56;21120;-74
2022/05/25 13:09:49;;;;;;;0.95;0.73;;;21.40;44.70;;;;;;2375534;56;21087;-75
2022/05/25 13:12:44;;;;;;;1.08;0.90;;;21.50;44.80;;;;;;2375365;56;21113;-74
2022/05/25 13:15:38;;;;;;;1.75;0.82;;;21.60;44.70;;;;;;2375311;56;21106;-75
2022/05/25 13:18:09;;;;;;;5.30;1.20;;;21.60;45.10;;;;;;2375459;56;21062;-74
2022/05/25 13:20:58;;;;;;;1.52;1.10;;;21.70;44.40;;;;;;2505559;52;21115;-74
2022/05/25 13:24:06;;;;;;;2.22;0.90;;;21.80;42.60;;;;;;2375626;56;21039;-76
2022/05/25 13:26:51;;;;;;;2.95;1.42;;;22.00;43.10;;;;;;2375089;56;21058;-76
2022/05/25 13:29:27;;;;;;;2.35;1.00;;;22.10;43.90;;;;;;2375598;56;21115;-76
2022/05/25 13:31:58;;;;;;;0.77;0.70;;;22.20;43.20;;;;;;2375333;56;21047;-76
2022/05/25 13:34:29;;;;;;;2.25;0.93;;;22.30;43.30;;;;;;2375532;56;21023;-75
2022/05/25 13:37:00;;;;;;;1.42;1.17;;;22.20;43.70;;;;;;2374975;56;21035;-76
2022/05/25 13:39:28;;;;;;;2.33;0.95;;;22.10;41.70;;;;;;2375634;56;21093;-75
2022/05/25 13:41:59;;;;;;;2.83;0.90;;;22.10;42.10;;;;;;2375517;56;21063;-76
2022/05/25 13:44:31;;;;;;;1.15;0.70;;;22.00;42.60;;;;;;2375550;56;21031;-75
2022/05/25 13:46:59;;;;;;;0.60;0.60;;;22.10;43.70;;;;;;2375106;56;21548;-75
2022/05/25 13:49:31;;;;;;;1.17;0.70;;;22.10;44.00;;;;;;2375242;56;21091;-75
2022/05/25 13:52:20;;;;;;;1.10;0.90;;;22.30;44.10;;;;;;2375449;56;21103;-75
2022/05/25 13:54:51;;;;;;;2.30;1.00;;;22.40;43.40;;;;;;2497035;52;21086;-76